createdAt,value
2023-04-14T00:03:38.858Z,9.78
2023-04-14T00:08:40.415Z,9.74
2023-04-14T00:13:42.106Z,9.79
2023-04-14T00:18:43.561Z,9.84
2023-04-14T00:23:45.014Z,9.89
2023-04-14T00:28:46.434Z,9.90
2023-04-14T00:33:47.863Z,9.92
2023-04-14T00:38:49.268Z,9.98
2023-04-14T00:43:54.440Z,9.98
2023-04-14T00:48:56.448Z,10.01
2023-04-14T00:53:58.395Z,10.02
2023-04-14T00:59:01.300Z,9.98
2023-04-14T01:04:03.715Z,10.05
2023-04-14T01:09:05.825Z,10.10
2023-04-14T01:14:44.644Z,10.03
2023-04-14T01:20:16.909Z,9.97
2023-04-14T01:25:57.922Z,9.91
2023-04-14T01:31:25.376Z,9.88
2023-04-14T01:36:34.556Z,9.90
2023-04-14T01:41:42.136Z,9.98
2023-04-14T01:46:44.903Z,10.02
2023-04-14T01:51:48.605Z,9.92
2023-04-14T01:56:51.870Z,9.88
2023-04-14T02:01:54.110Z,9.88
2023-04-14T02:06:58.770Z,9.78
2023-04-14T02:12:01.413Z,9.76
2023-04-14T02:17:05.185Z,9.86
2023-04-14T02:22:06.742Z,9.63
2023-04-14T02:27:18.850Z,9.64
2023-04-14T02:32:24.658Z,9.63
2023-04-14T02:37:39.242Z,9.79
2023-04-14T02:42:43.259Z,9.76
2023-04-14T02:47:50.253Z,9.40
2023-04-14T02:52:53.969Z,9.52
2023-04-14T02:57:59.938Z,9.62
2023-04-14T03:03:07.697Z,9.63
2023-04-14T03:08:12.054Z,9.76
2023-04-14T03:13:16.578Z,9.69
2023-04-14T03:18:19.651Z,9.76
2023-04-14T03:23:25.231Z,9.81
2023-04-14T03:28:36.252Z,9.81
2023-04-14T03:33:42.601Z,9.70
2023-04-14T03:38:49.760Z,9.72
2023-04-14T03:43:53.478Z,9.78
2023-04-14T03:48:58.669Z,9.79
2023-04-14T03:54:04.845Z,9.78
2023-04-14T03:59:10.017Z,9.86
2023-04-14T04:04:14.822Z,10.01
2023-04-14T04:09:18.688Z,9.86
2023-04-14T04:14:22.590Z,9.96
2023-04-14T04:19:25.953Z,9.97
2023-04-14T04:24:31.573Z,10.24
2023-04-14T04:29:33.422Z,10.23
2023-04-14T04:34:35.220Z,10.13
2023-04-14T04:39:37.848Z,10.07
2023-04-14T04:44:39.636Z,10.01
2023-04-14T04:49:41.260Z,9.96
2023-04-14T04:54:42.781Z,9.97
2023-04-14T04:59:44.289Z,9.97
2023-04-14T05:04:49.216Z,9.94
2023-04-14T05:09:51.135Z,9.96
2023-04-14T05:14:52.817Z,9.83
2023-04-14T05:19:54.489Z,9.70
2023-04-14T05:24:56.107Z,9.60
2023-04-14T05:29:58.022Z,9.75
2023-04-14T05:34:59.652Z,9.87
2023-04-14T05:40:01.247Z,9.79
2023-04-14T05:45:02.988Z,9.76
2023-04-14T05:50:05.404Z,9.74
2023-04-14T05:55:07.632Z,9.73
2023-04-14T06:00:10.659Z,9.86
2023-04-14T06:05:16.312Z,10.20
2023-04-14T06:10:18.014Z,10.28
2023-04-14T06:15:19.670Z,10.18
2023-04-14T06:20:21.257Z,10.19
2023-04-14T06:25:22.997Z,10.18
2023-04-14T06:30:24.644Z,10.28
2023-04-14T06:35:33.006Z,10.41
2023-04-14T06:40:35.323Z,10.35
2023-04-14T06:45:37.005Z,10.36
2023-04-14T06:50:38.749Z,10.58
2023-04-14T06:55:43.317Z,10.90
2023-04-14T07:00:44.897Z,10.65
2023-04-14T07:05:46.527Z,10.72
2023-04-14T07:10:48.323Z,10.75
2023-04-14T07:15:50.787Z,10.58
2023-04-14T07:20:53.010Z,10.71
2023-04-14T07:25:56.729Z,10.91
2023-04-14T07:30:58.365Z,10.71
2023-04-14T07:36:03.500Z,10.89
2023-04-14T07:41:07.939Z,11.18
2023-04-14T07:46:09.513Z,11.29
2023-04-14T07:51:11.303Z,11.50
2023-04-14T07:56:13.057Z,11.57
2023-04-14T08:01:14.668Z,11.61
2023-04-14T08:06:16.153Z,11.78
2023-04-14T08:11:17.622Z,11.97
2023-04-14T08:16:23.143Z,12.08
2023-04-14T08:42:59.868Z,12.67
2023-04-14T08:48:04.009Z,13.06
2023-04-14T08:53:09.198Z,13.21
2023-04-14T08:58:11.347Z,13.33
2023-04-14T09:03:14.091Z,13.20
2023-04-14T09:08:19.636Z,13.26
2023-04-14T09:13:24.114Z,13.27
2023-04-14T09:18:29.566Z,13.35
2023-04-14T09:23:36.843Z,13.47
2023-04-14T09:28:39.211Z,13.79
2023-04-14T09:33:45.365Z,13.88
2023-04-14T09:38:50.066Z,14.12
2023-04-14T09:43:52.678Z,14.50
2023-04-14T09:54:44.586Z,14.89
2023-04-14T09:59:51.022Z,14.97
2023-04-14T10:05:08.985Z,15.44
2023-04-14T10:10:12.887Z,15.69
2023-04-14T10:15:15.579Z,15.91
2023-04-14T10:20:19.121Z,15.73
2023-04-14T10:25:26.389Z,15.72
2023-04-14T10:30:28.230Z,15.38
2023-04-14T10:40:59.226Z,15.07
2023-04-14T10:46:01.204Z,15.58
2023-04-14T10:51:05.474Z,16.01
2023-04-14T10:56:08.387Z,16.00
2023-04-14T11:01:31.257Z,15.79
2023-04-14T11:06:49.490Z,15.65
2023-04-14T11:11:51.406Z,15.45
2023-04-14T11:17:04.507Z,15.28
2023-04-14T11:22:06.840Z,15.55
2023-04-14T11:27:11.866Z,16.25
2023-04-14T11:32:14.085Z,16.62
2023-04-14T11:37:22.923Z,16.49
2023-04-14T11:42:24.965Z,16.32
2023-04-14T11:47:26.903Z,16.33
2023-04-14T11:52:29.023Z,16.61
2023-04-14T11:57:37.479Z,16.84
2023-04-14T12:08:26.365Z,16.19
2023-04-14T12:35:46.707Z,16.78
2023-04-14T12:41:49.304Z,16.75
2023-04-14T12:46:58.568Z,16.61
2023-04-14T12:52:00.981Z,16.33
2023-04-14T12:57:03.584Z,16.12
2023-04-14T13:17:47.930Z,17.09
2023-04-14T13:22:49.408Z,17.09
2023-04-14T13:27:50.832Z,16.97
2023-04-14T13:32:52.262Z,16.84
2023-04-14T13:37:53.789Z,17.04
2023-04-14T13:42:55.547Z,17.08
2023-04-14T13:47:57.108Z,17.28
2023-04-14T13:52:58.531Z,17.30
2023-04-14T13:58:00.012Z,17.24
2023-04-14T14:03:01.932Z,17.39
2023-04-14T14:08:03.578Z,17.49
2023-04-14T14:13:04.997Z,17.39
2023-04-14T14:18:06.446Z,17.24
2023-04-14T14:23:08.004Z,16.90
2023-04-14T14:28:09.487Z,16.68
2023-04-14T14:33:11.007Z,16.76
2023-04-14T14:38:12.506Z,16.67
2023-04-14T14:43:14.383Z,16.70
2023-04-14T14:48:15.845Z,16.67
2023-04-14T14:53:17.270Z,16.74
2023-04-14T14:58:18.757Z,16.65
2023-04-14T15:03:20.298Z,16.82
2023-04-14T15:08:21.760Z,16.81
2023-04-14T15:13:23.468Z,16.77
2023-04-14T15:18:24.969Z,16.87
2023-04-14T15:23:26.398Z,17.05
2023-04-14T15:28:27.889Z,17.32
2023-04-14T15:33:29.318Z,17.40
2023-04-14T15:38:30.707Z,17.35
2023-04-14T15:43:32.227Z,17.36
2023-04-14T15:48:33.749Z,17.48
2023-04-14T15:53:35.195Z,17.52
2023-04-14T15:58:36.678Z,17.68
2023-04-14T16:03:38.259Z,17.60
2023-04-14T16:08:39.854Z,17.49
2023-04-14T16:13:41.346Z,17.55
2023-04-14T16:18:42.832Z,17.64
2023-04-14T16:23:44.353Z,17.46
2023-04-14T16:28:45.771Z,17.25
2023-04-14T16:33:47.214Z,17.19
2023-04-14T16:38:48.631Z,17.01
2023-04-14T16:43:50.131Z,16.91
2023-04-14T16:48:51.603Z,16.75
2023-04-14T16:53:53.178Z,16.78
2023-04-14T16:58:54.642Z,16.69
2023-04-14T17:03:56.257Z,16.55
2023-04-14T17:08:58.013Z,16.51
2023-04-14T17:13:59.694Z,16.36
2023-04-14T17:19:01.288Z,16.18
2023-04-14T17:24:03.451Z,15.98
2023-04-14T17:29:04.961Z,15.70
2023-04-14T17:34:06.566Z,15.62
2023-04-14T17:39:07.988Z,15.55
2023-04-14T17:44:09.496Z,15.56
2023-04-14T17:49:10.947Z,15.42
2023-04-14T17:54:12.543Z,15.36
2023-04-14T17:59:14.000Z,15.24
2023-04-14T18:04:15.605Z,15.15
2023-04-14T18:09:17.172Z,14.92
2023-04-14T18:14:18.575Z,14.59
2023-04-14T18:19:20.019Z,14.23
2023-04-14T18:29:28.017Z,13.78
2023-04-14T18:34:29.449Z,13.66
2023-04-14T18:39:32.002Z,13.51
2023-04-14T18:44:33.449Z,13.53
2023-04-14T18:49:35.039Z,13.46
2023-04-14T18:54:36.514Z,13.43
2023-04-14T18:59:38.110Z,13.54
2023-04-14T19:04:39.940Z,13.32
2023-04-14T19:09:41.515Z,13.03
2023-04-14T19:14:43.856Z,12.94
2023-04-14T19:19:45.302Z,12.91
2023-04-14T19:24:46.773Z,12.91
2023-04-14T19:29:48.271Z,12.88
2023-04-14T19:34:49.773Z,12.96
2023-04-14T19:39:51.251Z,13.11
2023-04-14T19:44:52.746Z,13.12
2023-04-14T19:49:54.249Z,12.93
2023-04-14T19:54:55.736Z,12.85
2023-04-14T19:59:57.419Z,12.68
2023-04-14T20:04:58.890Z,12.65
2023-04-14T20:10:00.313Z,12.62
2023-04-14T20:15:01.809Z,12.34
2023-04-14T20:20:03.377Z,12.28
2023-04-14T20:25:05.480Z,12.27
2023-04-14T20:30:07.562Z,12.23
2023-04-14T20:35:09.148Z,12.07
2023-04-14T20:40:10.828Z,12.03
2023-04-14T20:45:12.351Z,12.07
2023-04-14T20:50:13.881Z,12.04
2023-04-14T20:55:15.397Z,11.94
2023-04-14T21:00:16.986Z,11.86
2023-04-14T21:05:18.529Z,11.81
2023-04-14T21:10:20.016Z,11.60
2023-04-14T21:15:45.633Z,11.32
2023-04-14T21:20:43.163Z,11.20
2023-04-14T21:25:44.653Z,11.17
2023-04-14T21:30:46.099Z,11.27
2023-04-14T21:35:47.823Z,11.35
2023-04-14T21:40:49.797Z,11.13
2023-04-14T21:45:51.323Z,11.19
2023-04-14T21:50:52.836Z,11.07
2023-04-14T21:56:09.259Z,11.07
2023-04-14T22:01:12.009Z,11.01
2023-04-14T22:06:13.523Z,10.85
2023-04-14T22:11:15.176Z,10.70
2023-04-14T22:16:16.675Z,10.61
2023-04-14T22:21:18.184Z,10.56
2023-04-14T22:26:19.704Z,10.60
2023-04-14T22:31:21.222Z,10.53
2023-04-14T22:36:22.693Z,10.56
2023-04-14T22:41:24.473Z,10.58
2023-04-14T22:46:25.965Z,10.53
2023-04-14T22:51:27.392Z,10.46
2023-04-14T22:56:28.875Z,10.41
2023-04-14T23:01:30.392Z,10.41
2023-04-14T23:06:31.962Z,10.31
2023-04-14T23:11:33.401Z,10.10
2023-04-14T23:16:34.909Z,9.91
2023-04-14T23:21:36.427Z,10.09
2023-04-14T23:26:37.945Z,10.03
2023-04-14T23:31:39.458Z,10.06
2023-04-14T23:36:41.015Z,10.05
2023-04-14T23:41:42.466Z,10.12
2023-04-14T23:46:43.987Z,10.10
2023-04-14T23:51:45.477Z,10.05
2023-04-14T23:56:47.086Z,10.05
